createdAt,value
2022-12-16T15:30:54.791Z,-0.90
2022-12-16T15:33:43.444Z,-0.87
2022-12-16T15:36:44.992Z,-0.82
2022-12-16T15:39:38.163Z,-1.13
2022-12-16T15:42:24.348Z,-1.32
2022-12-16T15:45:11.742Z,-1.34
2022-12-16T15:47:59.357Z,-1.39
2022-12-16T15:50:48.040Z,-1.64
2022-12-16T15:53:35.654Z,-1.41
2022-12-16T15:56:22.033Z,-1.51
2022-12-16T15:59:07.717Z,-1.57
2022-12-16T16:02:05.078Z,-1.68
2022-12-16T16:04:54.377Z,-2.11
2022-12-16T16:07:42.365Z,-2.11
2022-12-16T16:10:34.391Z,-2.10
2022-12-16T16:13:28.710Z,-2.26
2022-12-16T16:16:14.578Z,-2.31
2022-12-16T16:19:01.148Z,-2.24
2022-12-16T16:21:49.522Z,-2.46
2022-12-16T16:24:34.777Z,-2.40
2022-12-16T16:27:23.451Z,-2.49
2022-12-16T16:30:08.881Z,-2.47
2022-12-16T16:32:54.123Z,-2.65
2022-12-16T16:35:39.958Z,-2.73
2022-12-16T16:38:33.733Z,-2.90
2022-12-16T16:41:19.335Z,-2.85
2022-12-16T16:44:04.613Z,-2.93
2022-12-16T16:46:53.574Z,-3.04
2022-12-16T16:49:50.106Z,-3.02
2022-12-16T16:52:39.371Z,-3.00
2022-12-16T16:55:32.234Z,-3.18
2022-12-16T16:58:17.772Z,-3.12
2022-12-16T17:01:03.889Z,-2.93
2022-12-16T17:03:49.672Z,-3.10
2022-12-16T17:06:35.306Z,-2.96
2022-12-16T17:09:20.772Z,-2.96
2022-12-16T17:12:07.898Z,-3.01
2022-12-16T17:14:53.596Z,-2.87
2022-12-16T17:17:38.842Z,-2.83
2022-12-16T17:20:25.225Z,-2.89
2022-12-16T17:23:10.652Z,-2.85
2022-12-16T17:25:56.263Z,-2.44
2022-12-16T17:28:43.179Z,-2.57
2022-12-16T17:31:30.703Z,-2.40
2022-12-16T17:34:16.177Z,-2.59
2022-12-16T17:37:01.977Z,-2.34
2022-12-16T17:39:47.097Z,-2.38
2022-12-16T17:42:32.865Z,-2.52
2022-12-16T17:45:20.092Z,-2.37
2022-12-16T17:48:05.784Z,-2.40
2022-12-16T17:50:51.361Z,-2.18
2022-12-16T17:53:37.001Z,-2.17
2022-12-16T17:56:23.658Z,-2.15
2022-12-16T17:59:11.097Z,-1.98
2022-12-16T18:01:58.646Z,-2.01
2022-12-16T18:04:44.008Z,-2.23
2022-12-16T18:07:29.550Z,-1.97
2022-12-16T18:10:14.744Z,-1.97
2022-12-16T18:13:01.044Z,-1.91
2022-12-16T18:15:46.657Z,-2.09
2022-12-16T18:18:32.687Z,-2.26
2022-12-16T18:21:28.044Z,-1.98
2022-12-16T18:24:13.826Z,-1.93
2022-12-16T18:26:59.333Z,-2.04
2022-12-16T18:29:44.929Z,-2.07
2022-12-16T18:32:35.013Z,-1.92
2022-12-16T18:35:22.737Z,-1.91
2022-12-16T18:38:13.396Z,-1.90
2022-12-16T18:41:01.787Z,-1.86
2022-12-16T18:43:47.315Z,-1.78
2022-12-16T18:46:33.182Z,-1.97
2022-12-16T18:49:14.968Z,-1.91
2022-12-16T18:52:02.165Z,-1.89
2022-12-16T18:54:48.312Z,-1.82
2022-12-16T18:57:39.452Z,-1.83
2022-12-16T19:00:27.171Z,-1.96
2022-12-16T19:03:12.688Z,-1.96
2022-12-16T19:05:58.495Z,-1.91
2022-12-16T19:08:47.389Z,-1.85
2022-12-16T19:11:32.785Z,-2.10
2022-12-16T19:14:18.166Z,-2.14
2022-12-16T19:17:12.680Z,-1.86
2022-12-16T19:19:58.061Z,-1.92
2022-12-16T19:22:43.849Z,-1.90
2022-12-16T19:25:31.254Z,-1.96
2022-12-16T19:28:16.971Z,-1.96
2022-12-16T19:31:02.388Z,-1.87
2022-12-16T19:33:48.030Z,-1.75
2022-12-16T19:36:33.773Z,-2.06
2022-12-16T19:39:18.960Z,-1.99
2022-12-16T19:42:06.414Z,-2.20
2022-12-16T19:44:51.802Z,-2.11
2022-12-16T19:47:37.600Z,-2.06
2022-12-16T19:50:24.901Z,-2.32
2022-12-16T19:53:10.499Z,-2.19
2022-12-16T19:55:56.370Z,-2.39
2022-12-16T19:58:43.290Z,-2.44
2022-12-16T20:01:28.778Z,-2.32
2022-12-16T20:04:11.222Z,-2.38
2022-12-16T20:06:56.735Z,-2.40
2022-12-16T20:09:45.596Z,-2.19
2022-12-16T20:12:31.697Z,-2.31
2022-12-16T20:15:33.315Z,-2.25
2022-12-16T20:18:22.110Z,-2.31
2022-12-16T20:21:08.029Z,-2.35
2022-12-16T20:23:53.197Z,-2.30
2022-12-16T20:26:39.516Z,-2.45
2022-12-16T20:29:25.225Z,-2.47
2022-12-16T20:32:11.978Z,-2.15
2022-12-16T20:34:57.842Z,-2.31
2022-12-16T20:37:43.117Z,-2.42
2022-12-16T20:40:29.765Z,-2.19
2022-12-16T20:43:16.129Z,-2.15
2022-12-16T20:46:03.052Z,-2.16
2022-12-16T20:48:50.880Z,-2.25
2022-12-16T20:51:37.096Z,-2.43
2022-12-16T20:54:25.029Z,-2.32
2022-12-16T21:00:18.625Z,-2.38
2022-12-16T21:03:05.225Z,-2.41
2022-12-16T21:05:58.471Z,-2.44
2022-12-16T21:08:43.977Z,-2.62
2022-12-16T21:11:40.703Z,-2.61
2022-12-16T21:14:29.393Z,-2.62
2022-12-16T21:14:42.634Z,-2.38
2022-12-16T21:17:15.511Z,-2.77
2022-12-16T21:20:06.491Z,-2.75
2022-12-16T21:22:58.317Z,-2.68
2022-12-16T21:25:44.206Z,-2.56
2022-12-16T21:28:30.196Z,-2.66
2022-12-16T21:31:22.025Z,-2.71
2022-12-16T21:34:13.711Z,-2.72
2022-12-16T21:37:09.979Z,-2.68
2022-12-16T21:40:02.113Z,-2.75
2022-12-16T21:42:48.790Z,-2.88
2022-12-16T21:45:51.164Z,-2.81
2022-12-16T21:48:49.320Z,-2.83
2022-12-16T21:51:37.998Z,-2.86
2022-12-16T21:54:34.846Z,-2.83
2022-12-16T21:57:24.091Z,-2.77
2022-12-16T22:00:10.289Z,-2.73
2022-12-16T22:03:00.469Z,-2.58
2022-12-16T22:05:46.368Z,-2.72
2022-12-16T22:08:33.212Z,-2.67
2022-12-16T22:11:19.312Z,-2.58
2022-12-16T22:14:07.009Z,-2.74
2022-12-16T22:16:53.619Z,-2.59
2022-12-16T22:19:39.814Z,-2.62
2022-12-16T22:22:27.547Z,-2.62
2022-12-16T22:25:16.919Z,-2.62
2022-12-16T22:28:02.912Z,-2.54
2022-12-16T22:30:56.332Z,-2.33
2022-12-16T22:33:38.684Z,-2.42
2022-12-16T22:36:27.134Z,-2.52
2022-12-16T22:39:17.530Z,-2.43
2022-12-16T22:42:03.522Z,-2.41
2022-12-16T22:44:49.400Z,-2.31
2022-12-16T22:47:39.459Z,-2.30
2022-12-16T22:50:28.671Z,-2.27
2022-12-16T22:53:14.309Z,-2.52
2022-12-16T22:56:02.803Z,-2.42
2022-12-16T22:59:03.338Z,-2.38
2022-12-16T23:01:49.889Z,-2.43
2022-12-16T23:04:37.518Z,-2.36
2022-12-16T23:07:23.771Z,-2.40
2022-12-16T23:10:15.089Z,-2.45
2022-12-16T23:13:01.251Z,-2.35
2022-12-16T23:15:47.440Z,-2.29
2022-12-16T23:18:33.579Z,-2.29
2022-12-16T23:21:21.618Z,-2.36
2022-12-16T23:24:17.789Z,-2.44
2022-12-16T23:27:03.833Z,-2.56
2022-12-16T23:29:50.049Z,-2.41
2022-12-16T23:32:49.325Z,-2.51
2022-12-16T23:35:35.325Z,-2.42
2022-12-16T23:38:26.346Z,-2.44
2022-12-16T23:41:17.643Z,-2.50
2022-12-16T23:44:07.529Z,-2.41
2022-12-16T23:46:54.886Z,-2.44
2022-12-16T23:49:42.983Z,-2.38
2022-12-16T23:52:28.803Z,-2.54
2022-12-16T23:55:16.706Z,-2.38
2022-12-16T23:58:02.700Z,-2.60
